Time;durP1;ratioP1;P1;durP2;ratioP2;P2;SDS_P1;SDS_P2;PMS_P1;PMS_P2;Temp;Humidity;BMP_temperature;BMP_pressure;BME280_temperature;BME280_humidity;BME280_pressure;Samples;Min_cycle;Max_cycle;Signal;HPM_P1;HPM_P2
2022/01/25 00:26:40;;;;;;;105.95;47.50;;;;;;;-13.80;92.00;94377.91;5070969;28;20051;-86
2022/01/25 00:29:10;;;;;;;97.20;44.42;;;;;;;-13.66;93.40;94387.47;5070949;28;20056;-86
2022/01/25 00:31:39;;;;;;;111.13;49.20;;;;;;;-13.69;93.49;94385.06;5070997;28;20457;-86
2022/01/25 00:34:09;;;;;;;113.47;45.30;;;;;;;-13.79;92.75;94373.75;5070382;28;20578;-86
2022/01/25 00:36:36;;;;;;;86.00;38.30;;;;;;;-13.76;92.28;94386.06;5070565;28;20052;-86
2022/01/25 00:39:06;;;;;;;74.32;34.63;;;;;;;-13.94;91.17;94377.41;5070537;28;20071;-87
2022/01/25 00:41:33;;;;;;;68.03;30.67;;;;;;;-13.92;92.10;94391.34;5070911;28;20056;-87
2022/01/25 00:44:02;;;;;;;104.10;46.95;;;;;;;-13.89;92.74;94373.97;5070990;28;20044;-86
2022/01/25 00:46:30;;;;;;;147.65;58.72;;;;;;;-13.77;91.98;94395.13;5070633;28;20495;-87
2022/01/25 00:49:01;;;;;;;137.13;59.05;;;;;;;-13.74;91.75;94389.31;5070468;28;20131;-86
2022/01/25 00:51:58;;;;;;;122.82;56.05;;;;;;;-13.86;90.83;94378.84;5070145;28;20072;-86
2022/01/25 00:54:30;;;;;;;117.28;54.03;;;;;;;-13.96;91.29;94362.59;5070578;28;20437;-86
2022/01/25 00:56:57;;;;;;;113.75;49.58;;;;;;;-13.88;92.51;94350.91;5070518;28;20057;-86
2022/01/25 00:59:28;;;;;;;124.68;56.65;;;;;;;-13.75;92.65;94371.19;5070578;28;20052;-86
2022/01/25 01:01:56;;;;;;;112.43;49.97;;;;;;;-13.87;91.71;94371.47;5070208;28;20052;-86
2022/01/25 01:04:24;;;;;;;103.72;45.85;;;;;;;-13.74;92.99;94370.34;5070866;28;20434;-86
2022/01/25 01:06:52;;;;;;;102.57;44.83;;;;;;;-13.66;92.80;94380.06;5070568;28;20052;-87
2022/01/25 01:09:22;;;;;;;93.93;41.10;;;;;;;-13.77;89.60;94380.28;5070560;28;20048;-86
2022/01/25 01:11:57;;;;;;;90.05;33.08;;;;;;;-13.83;90.71;94377.97;5070550;28;20044;-86
2022/01/25 01:14:40;;;;;;;;;;;;;;;-13.82;90.16;94377.13;5070566;28;20455;-87
2022/01/25 01:17:30;;;;;;;82.13;35.42;;;;;;;-13.83;89.84;94373.84;5070105;28;19920;-86
2022/01/25 01:31:08;;;;;;;99.20;45.60;;;;;;;-13.89;90.16;94366.56;5057094;28;20049;-85
2022/01/25 01:34:05;;;;;;;102.57;44.47;;;;;;;-13.81;89.90;94361.44;5069937;28;20041;-86
2022/01/25 01:45:11;;;;;;;117.40;51.15;;;;;;;-14.02;87.48;94357.81;5071683;28;20060;-85
2022/01/25 01:47:47;;;;;;;117.03;50.63;;;;;;;-14.17;89.85;94349.88;5073802;28;20052;-85
2022/01/25 01:50:26;;;;;;;111.55;44.47;;;;;;;-14.20;90.55;94341.72;5074090;28;20044;-86
2022/01/25 01:52:57;;;;;;;113.40;45.60;;;;;;;-14.28;90.13;94345.16;5073864;28;20052;-85
2022/01/25 01:55:25;;;;;;;85.53;37.65;;;;;;;-14.31;89.65;94351.84;5073679;28;20426;-85
2022/01/25 01:57:52;;;;;;;83.22;34.75;;;;;;;-14.38;89.28;94353.59;5073613;28;20055;-86
2022/01/25 02:00:21;;;;;;;80.30;33.72;;;;;;;-14.28;90.35;94361.63;5073653;28;20044;-85
2022/01/25 02:02:49;;;;;;;80.18;34.28;;;;;;;-14.27;91.00;94349.25;5073533;28;20049;-86
2022/01/25 02:05:16;;;;;;;93.75;37.25;;;;;;;-14.31;90.17;94347.69;5073705;28;20052;-86
2022/01/25 02:07:43;;;;;;;71.65;31.42;;;;;;;-14.29;90.29;94347.66;5073537;28;20052;-86
2022/01/25 02:10:11;;;;;;;80.93;35.13;;;;;;;-14.24;89.48;94348.38;5073558;28;20090;-85
2022/01/25 02:12:38;;;;;;;83.97;35.47;;;;;;;-14.26;90.15;94347.63;5072980;28;20419;-86
2022/01/25 02:15:06;;;;;;;84.53;40.28;;;;;;;-14.26;89.49;94347.63;5073293;28;20052;-85
2022/01/25 02:17:54;;;;;;;89.50;42.17;;;;;;;-14.26;90.18;94341.00;5072968;28;20051;-85
2022/01/25 02:23:18;;;;;;;92.00;42.90;;;;;;;-14.34;90.43;94328.03;5073350;28;20114;-86
2022/01/25 02:25:46;;;;;;;91.93;41.88;;;;;;;-14.37;88.89;94336.31;5073359;28;20045;-86
2022/01/25 02:28:13;;;;;;;91.38;41.35;;;;;;;-14.41;91.02;94310.06;5073297;28;20404;-86
2022/01/25 02:30:41;;;;;;;98.75;40.97;;;;;;;-14.46;90.16;94313.47;5073056;28;20094;-86
2022/01/25 02:33:08;;;;;;;110.10;49.35;;;;;;;-14.20;90.85;94330.19;5073134;28;20048;-86
2022/01/25 02:35:37;;;;;;;83.07;38.97;;;;;;;-14.36;89.91;94303.38;5072816;28;20063;-85
2022/01/25 02:38:04;;;;;;;77.32;35.30;;;;;;;-14.15;90.53;94313.63;5073253;28;20044;-85
2022/01/25 02:40:30;;;;;;;102.07;42.92;;;;;;;-14.15;89.58;94321.03;5073055;28;20491;-85
2022/01/25 02:42:57;;;;;;;77.75;34.05;;;;;;;-14.11;89.31;94319.31;5073015;28;20047;-86
2022/01/25 02:45:31;;;;;;;71.57;31.77;;;;;;;-14.47;88.81;94267.41;5072741;28;20052;-85
2022/01/25 02:50:45;;;;;;;87.50;39.95;;;;;;;-14.16;88.94;94311.19;5072993;28;20055;-85
2022/01/25 02:53:12;;;;;;;81.65;38.40;;;;;;;-14.11;89.52;94307.78;5072647;28;20044;-85
2022/01/25 02:55:40;;;;;;;90.97;41.55;;;;;;;-14.15;88.60;94313.63;5071947;28;20091;-84
2022/01/25 02:58:08;;;;;;;89.60;41.90;;;;;;;-14.17;88.53;94312.03;5082900;28;20036;-86
2022/01/25 03:00:35;;;;;;;95.03;39.47;;;;;;;-14.23;88.53;94317.91;5089450;28;20040;-86
2022/01/25 03:03:02;;;;;;;70.15;29.83;;;;;;;-14.36;88.01;94309.94;5068934;28;20052;-85
2022/01/25 03:05:29;;;;;;;59.15;28.83;;;;;;;-14.43;87.94;94296.94;5070805;28;20064;-86
2022/01/25 03:07:57;;;;;;;57.90;24.48;;;;;;;-14.47;88.65;94299.50;5070789;28;20060;-86
2022/01/25 03:10:33;;;;;;;57.05;26.17;;;;;;;-14.63;87.42;94272.72;5071625;28;20048;-85
2022/01/25 03:13:00;;;;;;;67.55;32.08;;;;;;;-14.59;87.30;94293.97;5072231;28;20623;-85
2022/01/25 03:15:42;;;;;;;68.35;29.50;;;;;;;-14.66;88.00;94288.38;5072542;28;20384;-86
2022/01/25 03:18:23;;;;;;;74.43;33.60;;;;;;;-14.69;88.66;94283.50;5072289;28;20131;-85
2022/01/25 03:20:58;;;;;;;75.20;31.33;;;;;;;-14.75;89.44;94283.66;5072349;28;20131;-85
2022/01/25 03:23:28;;;;;;;89.72;37.20;;;;;;;-14.79;89.21;94284.56;5076763;28;20044;-85
2022/01/25 03:25:55;;;;;;;86.75;33.38;;;;;;;-14.90;90.42;94265.06;5081967;28;20075;-85
2022/01/25 03:28:22;;;;;;;74.25;30.58;;;;;;;-14.74;90.06;94274.63;5074312;28;20458;-85
2022/01/25 03:30:50;;;;;;;80.38;33.53;;;;;;;-14.62;90.36;94271.84;5068538;28;20044;-85
2022/01/25 03:33:18;;;;;;;81.63;33.10;;;;;;;-14.68;89.13;94274.47;5073901;28;20139;-85
2022/01/25 03:35:46;;;;;;;89.20;35.10;;;;;;;-14.80;88.36;94268.13;5067918;28;20079;-85
2022/01/25 03:38:13;;;;;;;89.32;35.55;;;;;;;-14.80;89.47;94261.56;5071338;28;20084;-85
2022/01/25 03:40:42;;;;;;;103.85;42.17;;;;;;;-14.94;88.16;94263.47;5070254;28;20048;-86
2022/01/25 03:43:09;;;;;;;91.35;36.17;;;;;;;-14.95;88.44;94277.47;5078660;28;20055;-86
2022/01/25 03:45:39;;;;;;;106.00;41.83;;;;;;;-14.98;90.02;94274.25;5085996;28;20040;-85
2022/01/25 03:50:51;;;;;;;83.45;36.35;;;;;;;-14.93;90.85;94243.75;5090961;28;20052;-85
2022/01/25 03:53:20;;;;;;;69.50;29.40;;;;;;;-14.79;90.29;94254.97;5091596;28;20044;-85
2022/01/25 03:55:49;;;;;;;78.65;31.83;;;;;;;-14.77;90.77;94238.50;5091778;28;20418;-85
2022/01/25 03:58:17;;;;;;;87.75;35.05;;;;;;;-14.63;89.95;94253.75;5091850;28;20079;-85
2022/01/25 04:00:44;;;;;;;99.60;38.83;;;;;;;-14.85;89.08;94268.25;5088764;28;21747;-85
2022/01/25 04:03:16;;;;;;;99.50;40.78;;;;;;;-14.96;89.36;94270.91;5071322;28;20071;-85
2022/01/25 04:05:51;;;;;;;79.90;37.67;;;;;;;-14.85;91.15;94269.88;5071389;28;20047;-83
2022/01/25 04:08:19;;;;;;;75.28;32.35;;;;;;;-15.03;90.68;94247.22;5080106;28;20085;-84
2022/01/25 04:10:45;;;;;;;76.93;31.75;;;;;;;-14.77;91.95;94266.41;5091530;28;20054;-85
2022/01/25 04:13:14;;;;;;;77.15;34.53;;;;;;;-14.64;92.11;94269.41;5083949;28;20471;-86
2022/01/25 04:15:44;;;;;;;81.50;34.35;;;;;;;-14.59;91.38;94263.59;5071027;28;20513;-85
2022/01/25 04:18:24;;;;;;;74.65;33.03;;;;;;;-14.69;89.37;94272.84;5071215;28;20087;-85
2022/01/25 04:21:08;;;;;;;51.33;24.42;;;;;;;-14.58;89.14;94265.19;5071216;28;20048;-85
2022/01/25 04:26:19;;;;;;;41.97;19.63;;;;;;;-14.56;88.45;94251.16;5091354;28;20110;-85
2022/01/25 04:28:48;;;;;;;53.20;24.13;;;;;;;-14.52;88.86;94253.56;5091322;28;20051;-85
2022/01/25 04:31:18;;;;;;;54.42;24.85;;;;;;;-14.46;88.69;94251.78;5091290;28;20070;-85
2022/01/25 04:34:06;;;;;;;71.25;33.97;;;;;;;-14.46;88.66;94254.25;5091022;28;20047;-85
2022/01/25 04:36:55;;;;;;;63.70;29.65;;;;;;;-14.39;89.15;94253.28;5090787;28;20055;-85
2022/01/25 04:50:40;;;;;;;92.47;46.03;;;;;;;-14.65;89.31;94248.06;5091040;28;20133;-86
2022/01/25 04:53:13;;;;;;;100.65;49.22;;;;;;;-15.07;89.88;94197.19;5090765;28;20113;-84
2022/01/25 04:55:46;;;;;;;133.68;59.65;;;;;;;-14.73;90.58;94239.22;5090593;28;20048;-85
2022/01/25 04:58:20;;;;;;;134.73;59.08;;;;;;;-14.76;90.95;94247.50;5090914;28;20047;-85
2022/01/25 05:00:49;;;;;;;143.52;63.08;;;;;;;-14.78;90.77;94242.59;5087509;28;20560;-85
2022/01/25 05:03:22;;;;;;;140.05;60.60;;;;;;;-14.75;91.05;94244.19;5070106;28;20052;-85
2022/01/25 05:05:57;;;;;;;112.95;51.42;;;;;;;-14.83;90.19;94246.03;5082825;28;20464;-85
2022/01/25 05:08:33;;;;;;;109.03;51.30;;;;;;;-14.85;90.43;94248.50;5081459;28;20048;-85
2022/01/25 05:11:05;;;;;;;115.63;52.80;;;;;;;-14.89;90.67;94254.34;5068816;28;20072;-84
2022/01/25 05:13:42;;;;;;;100.93;48.40;;;;;;;-14.90;90.98;94251.06;5068904;28;20056;-86
2022/01/25 05:16:28;;;;;;;115.00;51.70;;;;;;;-15.01;91.14;94249.66;5069413;28;20053;-85
2022/01/25 05:19:04;;;;;;;88.80;43.08;;;;;;;-15.20;91.68;94247.53;5069034;28;20686;-85
2022/01/25 05:24:15;;;;;;;64.05;31.00;;;;;;;-15.25;94.51;94229.59;5071607;28;20498;-85
2022/01/25 05:26:43;;;;;;;21.92;12.55;;;;;;;-15.28;94.18;94208.28;5073670;28;20040;-84
2022/01/25 05:29:10;;;;;;;88.68;44.38;;;;;;;-15.66;92.05;94218.00;5070824;28;20048;-85
2022/01/25 05:31:39;;;;;;;94.03;39.50;;;;;;;-15.94;96.34;94223.44;5073624;28;20048;-84
2022/01/25 05:34:08;;;;;;;35.50;12.20;;;;;;;-15.94;98.06;94220.97;5073249;28;20048;-85
2022/01/25 05:36:35;;;;;;;101.38;48.40;;;;;;;-16.06;98.60;94218.72;5073267;28;20060;-86
2022/01/25 05:39:06;;;;;;;98.07;49.63;;;;;;;-15.80;100.00;94213.31;5073666;28;20049;-85
2022/01/25 05:41:33;;;;;;;102.60;48.20;;;;;;;-15.58;100.00;94221.16;5071129;28;20044;-85
2022/01/25 05:46:52;;;;;;;114.72;56.13;;;;;;;-15.17;97.64;94221.22;5072649;28;20059;-84
2022/01/25 05:49:19;;;;;;;114.28;55.03;;;;;;;-15.05;96.04;94220.13;5073185;28;20102;-85
2022/01/25 05:51:46;;;;;;;144.10;58.22;;;;;;;-14.88;95.30;94228.03;5073876;28;20497;-84
2022/01/25 05:54:13;;;;;;;123.13;58.33;;;;;;;-14.88;94.16;94199.25;5074250;28;20048;-85
2022/01/25 05:56:41;;;;;;;118.22;56.15;;;;;;;-14.75;93.07;94222.00;5073722;28;20462;-85
2022/01/25 05:59:08;;;;;;;105.90;50.47;;;;;;;-15.01;92.32;94183.91;5074043;28;20051;-85
2022/01/25 06:01:36;;;;;;;106.22;50.03;;;;;;;-14.84;92.15;94213.16;5073913;28;20049;-85
2022/01/25 06:04:06;;;;;;;120.70;58.10;;;;;;;-14.84;90.78;94218.06;5073806;28;20210;-85
2022/01/25 06:06:33;;;;;;;112.93;55.97;;;;;;;-14.81;91.50;94225.41;5073672;28;20586;-85
2022/01/25 06:09:00;;;;;;;104.40;53.60;;;;;;;-14.82;91.08;94226.25;5074030;28;20044;-85
2022/01/25 06:11:27;;;;;;;98.68;47.00;;;;;;;-14.86;89.82;94233.75;5073463;28;20472;-84
2022/01/25 06:13:54;;;;;;;82.55;43.40;;;;;;;-14.88;90.88;94237.91;5073481;28;20051;-84
2022/01/25 06:16:21;;;;;;;93.22;48.38;;;;;;;-14.83;90.61;94241.88;5073215;28;20052;-84
2022/01/25 06:18:47;;;;;;;89.50;44.80;;;;;;;-14.77;90.69;94245.91;5073692;28;20381;-84
2022/01/25 06:21:16;;;;;;;96.72;51.97;;;;;;;-14.66;90.82;94235.75;5073178;28;20426;-86
2022/01/25 06:23:43;;;;;;;106.22;55.40;;;;;;;-14.62;90.15;94234.84;5073504;28;20094;-85
2022/01/25 06:26:09;;;;;;;110.93;56.28;;;;;;;-14.70;89.78;94221.84;5073363;28;20048;-85
2022/01/25 06:28:36;;;;;;;79.40;41.55;;;;;;;-14.57;88.55;94237.22;5073024;28;20055;-85
2022/01/25 06:31:03;;;;;;;88.05;45.42;;;;;;;-14.50;89.94;94229.66;5072368;28;20060;-85
2022/01/25 06:33:30;;;;;;;78.88;41.33;;;;;;;-14.64;88.85;94204.47;5071469;28;20086;-85
2022/01/25 06:35:57;;;;;;;87.40;47.65;;;;;;;-14.56;88.80;94222.38;5072929;28;20060;-85
2022/01/25 06:38:26;;;;;;;104.60;53.35;;;;;;;-14.42;89.61;94223.72;5073196;28;20051;-84
2022/01/25 06:40:53;;;;;;;125.90;66.03;;;;;;;-14.43;89.17;94215.53;5073131;28;20078;-84
2022/01/25 06:43:20;;;;;;;144.93;69.43;;;;;;;-14.29;89.34;94224.25;5072702;28;20051;-85
2022/01/25 06:45:55;;;;;;;151.60;79.20;;;;;;;-14.27;89.75;94213.50;5073063;28;20044;-86
2022/01/25 06:48:22;;;;;;;149.98;75.15;;;;;;;-14.14;89.71;94230.50;5072967;28;20048;-85
2022/01/25 06:50:49;;;;;;;146.10;75.45;;;;;;;-14.04;90.41;94234.38;5072803;28;20094;-85
2022/01/25 06:53:17;;;;;;;159.30;81.82;;;;;;;-14.05;90.48;94205.59;5072858;28;20091;-86
2022/01/25 06:55:45;;;;;;;168.13;81.15;;;;;;;-13.79;90.10;94221.44;5072690;28;20053;-86
2022/01/25 06:58:12;;;;;;;170.98;87.13;;;;;;;-13.67;90.07;94220.28;5072417;28;20064;-86
2022/01/25 07:00:39;;;;;;;168.68;88.47;;;;;;;-13.66;90.16;94193.94;5072612;28;20499;-86
2022/01/25 07:03:06;;;;;;;162.50;84.00;;;;;;;-13.49;89.49;94208.31;5072492;28;20052;-85
2022/01/25 07:05:36;;;;;;;127.40;66.20;;;;;;;-13.23;89.46;94224.91;5072540;28;20050;-85
2022/01/25 07:08:04;;;;;;;119.13;57.10;;;;;;;-13.60;88.62;94160.00;5073155;28;20049;-85
2022/01/25 07:10:31;;;;;;;98.88;50.20;;;;;;;-13.05;nan;94212.88;5072267;28;20503;-85
2022/01/25 07:12:59;;;;;;;78.00;38.78;;;;;;;-12.90;88.46;94209.16;5072374;28;20041;-85
2022/01/25 07:15:26;;;;;;;91.15;41.90;;;;;;;-12.81;87.99;94206.44;5072449;28;20048;-86
2022/01/25 07:17:53;;;;;;;158.43;59.40;;;;;;;-12.72;88.72;94207.84;5072494;28;20056;-85
2022/01/25 07:20:20;;;;;;;252.65;86.82;;;;;;;-12.52;88.37;94207.25;5072286;28;20048;-86
2022/01/25 07:22:47;;;;;;;197.63;74.13;;;;;;;-12.39;88.03;94210.16;5072263;28;20396;-86
2022/01/25 07:25:14;;;;;;;246.15;95.25;;;;;;;-12.19;88.41;94205.47;5072008;28;20412;-86
2022/01/25 07:27:43;;;;;;;303.52;116.22;;;;;;;-12.03;87.81;94205.75;5072011;28;20049;-86
2022/01/25 07:30:12;;;;;;;231.80;97.35;;;;;;;-11.89;87.80;94196.22;5072177;28;20052;-86
2022/01/25 07:32:41;;;;;;;116.80;51.65;;;;;;;-11.71;87.92;94206.38;5071959;28;20060;-87
2022/01/25 07:35:11;;;;;;;85.22;40.38;;;;;;;-11.74;87.51;94189.13;5071819;28;20056;-86
2022/01/25 07:37:38;;;;;;;81.80;36.78;;;;;;;-11.48;87.12;94212.22;5071622;28;20186;-86
2022/01/25 07:40:06;;;;;;;81.07;40.35;;;;;;;-11.49;87.67;94179.19;5072043;28;20055;-87
2022/01/25 07:42:37;;;;;;;72.72;39.17;;;;;;;-11.29;87.11;94182.66;5070648;28;20040;-87
2022/01/25 07:45:07;;;;;;;67.63;34.88;;;;;;;-11.23;87.55;94175.00;5071686;28;20049;-87
2022/01/25 07:47:37;;;;;;;59.65;29.48;;;;;;;-10.87;88.17;94191.09;5071741;28;20071;-87
2022/01/25 07:50:05;;;;;;;59.47;32.33;;;;;;;-10.98;88.16;94165.84;5071637;28;20122;-87
2022/01/25 07:52:32;;;;;;;66.45;39.35;;;;;;;-10.68;89.18;94180.47;5071509;28;20136;-87
2022/01/25 07:54:58;;;;;;;74.53;41.25;;;;;;;-10.73;88.17;94149.19;5071743;28;20051;-87
2022/01/25 07:57:26;;;;;;;94.32;51.90;;;;;;;-10.41;87.90;94190.22;5071476;28;20075;-87
2022/01/25 07:59:53;;;;;;;100.05;57.13;;;;;;;-10.33;87.23;94176.63;5071479;28;20107;-87
2022/01/25 08:02:25;;;;;;;193.20;106.30;;;;;;;-10.00;89.19;94204.38;5071417;28;20056;-87
2022/01/25 08:04:53;;;;;;;167.30;89.32;;;;;;;-9.95;87.30;94187.59;5071828;28;20060;-87
2022/01/25 08:07:23;;;;;;;199.20;102.00;;;;;;;-9.73;88.53;94194.19;5071239;28;20584;-88
2022/01/25 08:09:50;;;;;;;142.52;71.35;;;;;;;-9.61;88.22;94192.88;5071466;28;20052;-88
2022/01/25 08:12:17;;;;;;;153.68;75.57;;;;;;;-9.53;88.93;94180.94;5071180;28;20045;-88
2022/01/25 08:14:50;;;;;;;143.52;65.07;;;;;;;-9.30;89.82;94191.59;5071175;28;20055;-90
2022/01/25 08:17:18;;;;;;;147.20;73.70;;;;;;;-9.13;89.94;94188.38;5070973;28;20049;-89
2022/01/25 08:19:44;;;;;;;146.70;78.93;;;;;;;-9.05;90.21;94168.13;5069334;28;20048;-89
2022/01/25 08:22:14;;;;;;;97.60;50.55;;;;;;;-8.79;90.17;94181.94;5071214;28;20063;-86
2022/01/25 08:24:43;;;;;;;89.82;49.03;;;;;;;-8.61;88.24;94189.47;5071203;28;20098;-87
2022/01/25 08:27:10;;;;;;;84.93;45.50;;;;;;;-8.56;87.90;94174.31;5071065;28;20048;-87
2022/01/25 08:29:39;;;;;;;119.82;56.97;;;;;;;-8.31;88.92;94191.41;5070780;28;20102;-88
2022/01/25 08:32:08;;;;;;;114.38;57.80;;;;;;;-8.48;88.84;94137.38;5071111;28;20131;-87
2022/01/25 08:34:36;;;;;;;109.35;59.65;;;;;;;-8.12;88.34;94183.03;5070902;28;20509;-87
2022/01/25 08:37:09;;;;;;;100.32;54.80;;;;;;;-7.91;90.20;94186.22;5070790;28;20110;-87
2022/01/25 08:39:52;;;;;;;;;;;;;;;;;;;;;
2022/01/25 08:42:23;;;;;;;75.43;39.13;;;;;;;-7.78;85.98;94159.00;5068903;28;20060;-88
2022/01/25 08:44:56;;;;;;;70.68;36.72;;;;;;;-7.51;86.00;94176.81;5070884;28;20048;-88
2022/01/25 08:47:23;;;;;;;57.05;29.02;;;;;;;-7.30;87.71;94185.78;5070769;28;20050;-89
2022/01/25 08:49:49;;;;;;;48.13;25.55;;;;;;;-7.28;83.50;94177.34;5070683;28;20504;-88
2022/01/25 08:52:18;;;;;;;32.38;18.85;;;;;;;-7.15;81.38;94177.53;5070506;28;20051;-88
2022/01/25 08:54:48;;;;;;;38.47;20.40;;;;;;;-7.34;80.13;94159.34;5070177;28;20553;-88
2022/01/25 08:57:18;;;;;;;34.42;20.33;;;;;;;-7.48;79.81;94172.53;5070469;28;20052;-88
2022/01/25 08:59:48;;;;;;;24.52;13.05;;;;;;;-7.36;80.08;94164.44;5070657;28;20540;-87
2022/01/25 09:02:19;;;;;;;29.30;16.63;;;;;;;-7.46;78.67;94170.78;5070636;28;20110;-88
2022/01/25 09:04:45;;;;;;;25.58;15.40;;;;;;;-7.43;80.35;94161.44;5070605;28;20491;-88
2022/01/25 09:07:12;;;;;;;25.27;13.48;;;;;;;-7.41;79.57;94156.38;5070254;28;20056;-88
2022/01/25 09:09:40;;;;;;;25.17;14.05;;;;;;;-7.23;80.05;94153.84;5070520;28;20048;-89
2022/01/25 09:12:10;;;;;;;202.05;122.97;;;;;;;-7.13;80.72;94155.78;5071149;28;20044;-87
2022/01/25 09:14:37;;;;;;;38.45;22.92;;;;;;;-7.17;80.00;94144.31;5072450;28;20063;-88
2022/01/25 09:17:07;;;;;;;26.23;15.65;;;;;;;-7.39;80.78;94137.94;5070950;28;20098;-88
2022/01/25 09:19:38;;;;;;;34.25;19.75;;;;;;;-7.05;84.61;94147.09;5070506;28;20044;-90
2022/01/25 09:22:05;;;;;;;36.80;20.30;;;;;;;-6.85;86.23;94136.84;5070381;28;20079;-88
2022/01/25 09:24:34;;;;;;;32.17;18.20;;;;;;;-6.81;79.93;94144.19;5070224;28;20040;-87
2022/01/25 09:27:04;;;;;;;45.40;19.92;;;;;;;-7.25;77.58;94147.25;5070492;28;20095;-88
2022/01/25 09:29:33;;;;;;;36.15;20.25;;;;;;;-7.28;81.37;94112.44;5070671;28;20048;-87
2022/01/25 09:32:00;;;;;;;31.92;17.50;;;;;;;-6.82;84.74;94138.38;5070145;28;20131;-88
2022/01/25 09:34:36;;;;;;;31.05;17.67;;;;;;;-6.56;84.61;94128.69;5070168;28;20045;-89
2022/01/25 09:37:06;;;;;;;36.90;19.17;;;;;;;-6.60;83.75;94083.09;5070282;28;20511;-91
2022/01/25 09:39:36;;;;;;;33.10;17.80;;;;;;;-6.14;84.42;94123.13;5070159;28;20044;-89
2022/01/25 09:42:08;;;;;;;37.15;17.73;;;;;;;-5.99;82.04;94124.75;5069566;28;20622;-90
2022/01/25 09:44:41;;;;;;;29.38;16.67;;;;;;;-5.79;81.76;94122.81;5069811;28;20455;-90
2022/01/25 09:47:09;;;;;;;31.25;16.30;;;;;;;-5.88;78.91;94118.31;5070559;28;20056;-90
2022/01/25 09:49:39;;;;;;;31.90;16.00;;;;;;;-6.20;77.67;94124.28;5070129;28;20103;-92
2022/01/25 09:52:08;;;;;;;34.55;17.77;;;;;;;-6.49;78.34;94082.47;5070245;28;20049;-88
2022/01/25 09:54:41;;;;;;;36.78;18.08;;;;;;;-6.21;83.04;94092.66;5080765;28;20052;-93
2022/01/25 09:57:15;;;;;;;37.55;17.42;;;;;;;-5.89;82.80;94112.50;5076918;28;20131;-92
2022/01/25 09:59:43;;;;;;;34.15;17.58;;;;;;;-6.28;80.41;94108.88;5080823;28;20080;-92
2022/01/25 10:02:10;;;;;;;34.40;16.88;;;;;;;-6.19;81.72;94084.19;5089548;28;20056;-93
2022/01/25 10:04:42;;;;;;;35.60;18.25;;;;;;;-5.81;83.88;94099.56;5089024;28;20036;-93
2022/01/25 10:07:12;;;;;;;33.97;16.02;;;;;;;-5.80;78.36;94096.97;5071688;28;20396;-94
2022/01/25 10:09:42;;;;;;;39.60;20.20;;;;;;;-6.01;78.99;94100.69;5073566;28;20430;-94
2022/01/25 10:12:34;;;;;;;119.55;48.88;;;;;;;-5.77;83.30;94080.97;5073187;28;20048;-92
2022/01/25 10:17:34;;;;;;;33.70;17.20;;;;;;;-5.61;80.86;94085.09;4961065;28;20094;-78
2022/01/25 10:20:00;;;;;;;32.80;16.42;;;;;;;-5.50;80.12;94087.78;4961928;28;20405;-79
2022/01/25 10:22:27;;;;;;;38.45;17.67;;;;;;;-5.78;80.29;94065.16;4963550;28;20065;-78
2022/01/25 10:24:54;;;;;;;32.75;16.33;;;;;;;-5.86;78.90;94079.00;4963302;28;20039;-78
2022/01/25 10:27:57;;;;;;;28.13;13.70;;;;;;;-5.83;79.07;94076.34;4962256;28;20066;-78
2022/01/25 10:30:12;;;;;;;31.20;13.73;;;;;;;-5.81;80.37;94060.34;4960692;28;20069;-78
2022/01/25 10:32:41;;;;;;;29.55;14.95;;;;;;;-5.95;78.93;94058.63;4962352;28;20466;-77
2022/01/25 10:35:14;;;;;;;42.10;19.50;;;;;;;-5.82;80.78;94048.72;4955222;28;20043;-78
2022/01/25 10:37:42;;;;;;;39.22;18.38;;;;;;;-5.64;80.42;94059.34;4960492;28;20055;-78
2022/01/25 10:40:10;;;;;;;34.95;17.55;;;;;;;-5.77;79.12;94059.28;4963149;28;20058;-78
2022/01/25 10:42:36;;;;;;;29.60;15.48;;;;;;;-5.74;80.49;94055.75;4963100;28;20102;-78
2022/01/25 10:45:08;;;;;;;35.20;17.90;;;;;;;-5.59;80.90;94055.78;4961591;28;20055;-78
2022/01/25 10:47:46;;;;;;;31.45;17.05;;;;;;;-5.54;81.51;94051.28;4962403;28;20074;-78
2022/01/25 10:50:14;;;;;;;36.10;15.13;;;;;;;-5.51;81.10;94053.63;4953599;29;20050;-78
2022/01/25 10:52:42;;;;;;;35.15;15.00;;;;;;;-5.42;81.55;94039.75;4953559;29;20048;-78
2022/01/25 10:55:10;;;;;;;30.52;15.20;;;;;;;-5.48;79.90;94012.59;4953386;28;20054;-78
2022/01/25 10:57:37;;;;;;;27.27;15.73;;;;;;;-5.45;79.57;94004.88;4952881;29;20098;-78
2022/01/25 11:00:09;;;;;;;29.55;14.43;;;;;;;-5.29;79.70;94009.75;4953140;29;20055;-78
2022/01/25 11:02:37;;;;;;;34.80;16.08;;;;;;;-5.16;77.95;94034.88;4953411;29;20054;-78
2022/01/25 11:05:11;;;;;;;35.50;16.55;;;;;;;-5.07;80.47;94023.47;4953167;29;20055;-78
2022/01/25 11:07:39;;;;;;;29.23;13.70;;;;;;;-5.02;79.87;94024.81;4952911;29;20059;-78
2022/01/25 11:10:08;;;;;;;35.03;16.15;;;;;;;-4.97;80.13;94019.50;4953122;28;20051;-78
2022/01/25 11:12:39;;;;;;;27.13;14.32;;;;;;;-4.89;79.32;94019.84;4952822;29;20043;-78
2022/01/25 11:15:07;;;;;;;30.08;15.13;;;;;;;-4.93;78.58;94013.41;4953152;28;20059;-78
2022/01/25 11:17:35;;;;;;;31.10;15.15;;;;;;;-4.80;79.10;94017.66;4971837;28;20051;-79
2022/01/25 11:20:04;;;;;;;34.38;14.85;;;;;;;-4.90;77.22;94023.25;4972143;28;20392;-79
2022/01/25 11:22:32;;;;;;;31.25;16.65;;;;;;;-5.06;77.16;94010.84;4972400;28;20054;-78
2022/01/25 11:25:01;;;;;;;27.08;14.32;;;;;;;-5.27;76.56;94018.78;4972352;28;20051;-78
2022/01/25 11:27:30;;;;;;;26.42;14.60;;;;;;;-5.27;78.38;94010.47;4971592;28;20047;-78
2022/01/25 11:30:00;;;;;;;27.98;13.85;;;;;;;-5.48;77.87;94005.88;4972192;28;20459;-78
2022/01/25 11:32:32;;;;;;;29.27;13.65;;;;;;;-5.94;78.53;94010.19;4972042;28;20102;-79
2022/01/25 11:34:59;;;;;;;28.23;14.60;;;;;;;-5.90;80.37;94011.63;4971789;28;20047;-78
2022/01/25 11:37:38;;;;;;;25.88;15.43;;;;;;;-5.70;82.15;93996.34;4971289;28;20051;-78
2022/01/25 11:40:20;;;;;;;25.15;14.73;;;;;;;-5.47;82.71;93996.66;4971772;28;20046;-79
2022/01/25 11:42:48;;;;;;;36.70;16.40;;;;;;;-5.96;81.38;93971.97;4971547;28;20134;-78
2022/01/25 11:45:15;;;;;;;33.28;16.10;;;;;;;-5.70;84.06;93977.09;4970065;28;20077;-78
2022/01/25 11:47:49;;;;;;;31.83;15.68;;;;;;;-5.43;81.81;93986.38;4969717;28;20511;-78
2022/01/25 11:50:16;;;;;;;30.35;16.88;;;;;;;-5.43;82.31;93968.03;4971079;28;20137;-78
2022/01/25 11:52:51;;;;;;;28.02;15.50;;;;;;;-5.23;81.58;93961.81;4972000;28;20487;-78
2022/01/25 11:55:25;;;;;;;26.37;16.30;;;;;;;-5.37;80.79;93965.97;4971458;28;20491;-78
2022/01/25 11:57:55;;;;;;;29.00;15.10;;;;;;;-5.33;80.81;93961.56;4971130;28;20055;-80
2022/01/25 12:00:23;;;;;;;21.27;12.65;;;;;;;-5.75;79.80;93926.53;4971334;28;20046;-78
2022/01/25 12:02:53;;;;;;;33.83;17.02;;;;;;;-5.36;82.67;93947.53;4971550;28;20050;-78
2022/01/25 12:05:26;;;;;;;26.70;13.95;;;;;;;-5.17;81.05;93958.13;4971454;28;20070;-78
2022/01/25 12:08:08;;;;;;;27.60;15.52;;;;;;;-5.14;81.39;93940.41;4971244;28;20134;-78
2022/01/25 12:10:39;;;;;;;25.88;13.38;;;;;;;-5.01;80.71;93956.25;4971358;28;20047;-78
2022/01/25 12:13:14;;;;;;;25.92;12.82;;;;;;;-5.09;79.89;93955.94;4971206;28;20098;-78
2022/01/25 12:15:41;;;;;;;21.33;12.35;;;;;;;-5.23;80.40;93944.28;4965859;28;20066;-79
2022/01/25 12:18:10;;;;;;;27.30;15.25;;;;;;;-5.13;81.06;93957.03;4951709;29;20051;-79
2022/01/25 12:20:48;;;;;;;24.33;14.57;;;;;;;-5.28;81.36;93919.50;4951996;29;20137;-81
2022/01/25 12:23:20;;;;;;;24.80;14.20;;;;;;;-5.04;81.94;93945.63;4951757;29;20051;-82
2022/01/25 12:25:51;;;;;;;22.63;14.43;;;;;;;-5.05;80.54;93939.03;4971017;28;20051;-79
2022/01/25 12:28:27;;;;;;;26.85;15.30;;;;;;;-4.89;80.45;93946.38;4970653;28;20081;-81
2022/01/25 12:30:59;;;;;;;23.45;13.98;;;;;;;-5.10;78.82;93942.59;4971137;28;20152;-81
2022/01/25 12:33:28;;;;;;;23.92;13.93;;;;;;;-5.49;79.69;93931.66;4970499;28;20050;-78
2022/01/25 12:36:03;;;;;;;21.27;11.95;;;;;;;-5.36;80.61;93935.00;4971005;28;20050;-78
2022/01/25 12:38:43;;;;;;;23.98;14.48;;;;;;;-5.64;79.86;93913.38;4970729;28;20057;-78
2022/01/25 12:41:15;;;;;;;25.67;15.57;;;;;;;-5.47;81.33;93926.56;4970808;28;20053;-78